createdAt,value
2022-11-25T00:01:17.470Z,41.78
2022-11-25T00:03:45.328Z,43.42
2022-11-25T00:06:13.036Z,42.60
2022-11-25T00:08:41.356Z,40.35
2022-11-25T00:11:08.723Z,36.95
2022-11-25T00:13:36.173Z,38.53
2022-11-25T00:16:04.310Z,37.97
2022-11-25T00:18:31.585Z,34.45
2022-11-25T00:20:59.093Z,40.42
2022-11-25T00:23:29.181Z,37.80
2022-11-25T00:26:07.131Z,36.47
2022-11-25T00:28:33.927Z,42.45
2022-11-25T00:31:13.124Z,39.20
2022-11-25T00:33:40.749Z,38.55
2022-11-25T00:36:19.207Z,33.97
2022-11-25T00:38:46.697Z,36.70
2022-11-25T00:41:32.397Z,38.90
2022-11-25T00:44:18.087Z,39.33
2022-11-25T00:46:44.827Z,41.15
2022-11-25T00:49:11.530Z,42.90
2022-11-25T00:51:38.237Z,39.88
2022-11-25T00:54:05.167Z,45.33
2022-11-25T00:56:32.150Z,43.58
2022-11-25T00:58:58.927Z,41.70
2022-11-25T01:01:25.909Z,42.80
2022-11-25T01:03:53.939Z,44.83
2022-11-25T01:06:22.161Z,42.20
2022-11-25T01:08:49.019Z,43.00
2022-11-25T01:11:18.616Z,44.45
2022-11-25T01:13:45.918Z,46.72
2022-11-25T01:16:16.170Z,45.80
2022-11-25T01:18:43.940Z,53.67
2022-11-25T01:21:13.399Z,56.08
2022-11-25T01:23:41.453Z,52.83
2022-11-25T01:26:11.814Z,54.20
2022-11-25T01:28:39.121Z,49.70
2022-11-25T01:31:09.175Z,51.88
2022-11-25T01:33:36.767Z,55.72
2022-11-25T01:36:07.731Z,58.97
2022-11-25T01:38:34.766Z,51.25
2022-11-25T01:41:02.886Z,51.25
2022-11-25T01:43:30.216Z,51.88
2022-11-25T01:46:25.846Z,61.80
2022-11-25T01:49:06.784Z,59.00
2022-11-25T01:51:36.529Z,54.13
2022-11-25T01:54:06.714Z,57.45
2022-11-25T01:56:39.486Z,88.28
2022-11-25T01:59:06.684Z,85.68
2022-11-25T02:01:33.841Z,98.25
2022-11-25T02:04:00.820Z,70.47
2022-11-25T02:06:36.089Z,77.10
2022-11-25T02:09:08.662Z,124.80
2022-11-25T02:11:38.963Z,187.43
2022-11-25T02:14:06.969Z,243.63
2022-11-25T02:16:33.865Z,225.02
2022-11-25T02:19:03.659Z,333.05
2022-11-25T02:21:42.101Z,238.25
2022-11-25T02:24:19.230Z,165.60
2022-11-25T02:26:46.176Z,163.15
2022-11-25T02:29:12.980Z,154.15
2022-11-25T02:31:39.960Z,150.68
2022-11-25T02:34:06.670Z,177.85
2022-11-25T02:36:34.307Z,181.93
2022-11-25T02:39:01.747Z,179.65
2022-11-25T02:41:50.436Z,135.80
2022-11-25T02:44:17.387Z,133.68
2022-11-25T02:46:44.132Z,227.48
2022-11-25T02:49:11.095Z,128.15
2022-11-25T02:51:40.222Z,160.20
2022-11-25T02:54:07.136Z,147.65
2022-11-25T02:56:36.142Z,113.80
2022-11-25T02:59:04.073Z,166.77
2022-11-25T03:01:31.887Z,166.32
2022-11-25T03:03:59.442Z,155.15
2022-11-25T03:06:26.411Z,156.95
2022-11-25T03:08:53.266Z,126.15
2022-11-25T03:11:20.023Z,140.40
2022-11-25T03:13:46.689Z,162.27
2022-11-25T03:16:13.576Z,155.95
2022-11-25T03:18:40.327Z,151.45
2022-11-25T03:21:07.465Z,129.18
2022-11-25T03:23:34.302Z,143.13
2022-11-25T03:26:05.608Z,108.35
2022-11-25T03:28:32.360Z,144.23
2022-11-25T03:30:59.121Z,140.93
2022-11-25T03:33:25.924Z,147.50
2022-11-25T03:35:52.608Z,112.50
2022-11-25T03:38:19.840Z,132.80
2022-11-25T03:40:47.858Z,114.50
2022-11-25T03:43:14.556Z,114.95
2022-11-25T03:45:41.329Z,102.75
2022-11-25T03:48:08.168Z,92.25
2022-11-25T03:50:35.022Z,110.03
2022-11-25T03:53:01.697Z,76.18
2022-11-25T03:55:28.506Z,115.35
2022-11-25T03:57:55.296Z,79.38
2022-11-25T04:00:22.109Z,99.38
2022-11-25T04:02:48.779Z,109.85
2022-11-25T04:05:15.645Z,68.78
2022-11-25T04:07:42.384Z,111.30
2022-11-25T04:10:09.877Z,100.40
2022-11-25T04:12:48.564Z,103.63
2022-11-25T04:15:16.792Z,103.22
2022-11-25T04:17:43.708Z,82.28
2022-11-25T04:20:12.232Z,85.40
2022-11-25T04:22:39.194Z,68.20
2022-11-25T04:25:06.677Z,69.75
2022-11-25T04:27:33.417Z,69.85
2022-11-25T04:30:00.274Z,78.40
2022-11-25T04:32:27.540Z,84.57
2022-11-25T04:34:54.481Z,75.40
2022-11-25T04:37:21.674Z,57.25
2022-11-25T04:39:48.411Z,64.60
2022-11-25T04:42:34.385Z,71.45
2022-11-25T04:45:25.395Z,46.83
2022-11-25T04:47:49.311Z,53.92
2022-11-25T04:50:20.325Z,53.00
2022-11-25T04:52:47.236Z,129.40
2022-11-25T04:55:13.951Z,58.90
2022-11-25T04:57:40.658Z,61.53
2022-11-25T05:00:09.278Z,79.85
2022-11-25T05:02:36.368Z,60.38
2022-11-25T05:05:03.377Z,57.40
2022-11-25T05:07:30.646Z,69.05
2022-11-25T05:09:58.008Z,82.65
2022-11-25T05:12:28.573Z,82.88
2022-11-25T05:14:55.927Z,87.70
2022-11-25T05:17:25.355Z,75.53
2022-11-25T05:19:53.449Z,80.65
2022-11-25T05:22:23.626Z,77.53
2022-11-25T05:24:50.389Z,62.88
2022-11-25T05:27:19.866Z,69.78
2022-11-25T05:29:51.404Z,69.75
2022-11-25T05:32:21.234Z,59.53
2022-11-25T05:34:47.868Z,74.85
2022-11-25T05:37:16.053Z,72.78
2022-11-25T05:39:44.354Z,72.05
2022-11-25T05:42:11.032Z,58.22
2022-11-25T05:44:37.970Z,68.68
2022-11-25T05:47:04.830Z,95.68
2022-11-25T05:49:31.505Z,81.85
2022-11-25T05:51:58.254Z,87.38
2022-11-25T05:54:25.164Z,55.58
2022-11-25T05:56:51.875Z,71.65
2022-11-25T05:59:18.676Z,65.40
2022-11-25T06:01:45.368Z,81.50
2022-11-25T06:04:12.077Z,95.93
2022-11-25T06:06:38.953Z,97.95
2022-11-25T06:09:05.795Z,64.95
2022-11-25T06:11:32.511Z,61.28
2022-11-25T06:13:59.307Z,71.15
2022-11-25T06:16:26.485Z,77.80
2022-11-25T06:18:53.242Z,49.25
2022-11-25T06:21:20.435Z,70.00
2022-11-25T06:23:47.638Z,74.70
2022-11-25T06:26:18.008Z,46.88
2022-11-25T06:28:45.591Z,45.30
2022-11-25T06:31:17.979Z,42.58
2022-11-25T06:33:49.827Z,47.45
2022-11-25T06:36:17.527Z,56.83
2022-11-25T06:38:48.956Z,48.50
2022-11-25T06:41:16.323Z,41.90
2022-11-25T06:43:43.149Z,57.30
2022-11-25T06:46:18.498Z,46.80
2022-11-25T06:48:49.939Z,42.95
2022-11-25T06:51:16.830Z,58.17
2022-11-25T06:53:44.104Z,33.15
2022-11-25T06:56:18.791Z,46.63
2022-11-25T06:58:46.938Z,50.75
2022-11-25T07:01:13.999Z,63.72
2022-11-25T07:03:42.030Z,43.72
2022-11-25T07:06:09.971Z,45.42
2022-11-25T07:08:36.779Z,54.22
2022-11-25T07:11:11.836Z,40.35
2022-11-25T07:13:38.674Z,47.85
2022-11-25T07:16:06.877Z,36.42
2022-11-25T07:18:37.132Z,35.38
2022-11-25T07:21:14.050Z,46.58
2022-11-25T07:23:41.950Z,40.13
2022-11-25T07:26:21.671Z,41.25
2022-11-25T07:28:49.959Z,45.90
2022-11-25T07:31:24.792Z,39.47
2022-11-25T07:33:56.522Z,46.33
2022-11-25T07:36:23.650Z,48.53
2022-11-25T07:38:50.680Z,42.38
2022-11-25T07:41:23.065Z,43.85
2022-11-25T07:43:52.070Z,43.10
2022-11-25T07:46:26.295Z,47.88
2022-11-25T07:48:56.467Z,52.65
2022-11-25T07:51:35.371Z,36.33
2022-11-25T07:54:03.529Z,41.50
2022-11-25T07:56:30.505Z,47.28
2022-11-25T07:58:57.777Z,28.08
2022-11-25T08:01:25.307Z,31.08
2022-11-25T08:03:52.420Z,44.58
2022-11-25T08:06:27.718Z,37.88
2022-11-25T08:08:56.065Z,29.02
2022-11-25T08:11:25.546Z,58.05
2022-11-25T08:13:53.068Z,42.55
2022-11-25T08:16:22.114Z,28.75
2022-11-25T08:18:49.674Z,48.10
2022-11-25T08:21:17.878Z,53.58
2022-11-25T08:23:48.477Z,47.33
2022-11-25T08:26:37.545Z,38.92
2022-11-25T08:29:07.824Z,37.60
2022-11-25T08:31:37.516Z,37.80
2022-11-25T08:34:05.972Z,51.88
2022-11-25T08:36:34.725Z,75.47
2022-11-25T08:39:22.510Z,45.38
2022-11-25T08:41:51.504Z,45.22
2022-11-25T08:44:18.257Z,43.00
2022-11-25T08:46:45.147Z,42.30
2022-11-25T08:49:12.755Z,27.13
2022-11-25T08:51:39.787Z,33.75
2022-11-25T08:54:08.559Z,46.20
2022-11-25T08:56:35.634Z,36.80
2022-11-25T08:59:03.856Z,59.03
2022-11-25T09:01:30.853Z,33.58
2022-11-25T09:03:58.768Z,55.08
2022-11-25T09:06:27.400Z,36.38
2022-11-25T09:08:59.573Z,42.53
2022-11-25T09:11:26.658Z,49.50
2022-11-25T09:13:53.470Z,30.90
2022-11-25T09:16:21.035Z,29.48
2022-11-25T09:18:54.102Z,35.83
2022-11-25T09:21:25.108Z,34.38
2022-11-25T09:23:54.037Z,30.48
2022-11-25T09:26:27.605Z,35.38
2022-11-25T09:28:54.695Z,49.38
2022-11-25T09:31:22.786Z,58.83
2022-11-25T09:33:50.219Z,49.03
2022-11-25T09:36:18.772Z,50.65
2022-11-25T09:38:45.813Z,50.50
2022-11-25T09:41:53.346Z,34.22
2022-11-25T09:45:14.495Z,31.27
2022-11-25T09:48:01.748Z,41.63
2022-11-25T09:50:53.258Z,30.70
2022-11-25T09:53:42.393Z,35.50
2022-11-25T09:56:22.780Z,41.85
2022-11-25T09:58:59.606Z,64.20
2022-11-25T10:01:29.081Z,36.97
2022-11-25T10:04:11.290Z,47.10
2022-11-25T10:06:47.460Z,39.38
2022-11-25T10:09:22.704Z,45.00
2022-11-25T10:14:39.743Z,42.75
2022-11-25T10:17:42.214Z,32.33
2022-11-25T10:20:18.236Z,34.30
2022-11-25T10:22:49.140Z,31.27
2022-11-25T10:25:20.203Z,38.38
2022-11-25T10:27:57.352Z,46.78
2022-11-25T10:30:27.601Z,32.88
2022-11-25T10:33:05.109Z,36.25
2022-11-25T10:35:38.501Z,37.00
2022-11-25T10:38:17.358Z,37.55
2022-11-25T10:40:48.810Z,36.95
2022-11-25T10:43:15.601Z,40.67
2022-11-25T10:45:54.338Z,35.40
2022-11-25T10:48:52.406Z,37.67
2022-11-25T10:51:40.611Z,39.60
2022-11-25T10:54:14.608Z,36.72
2022-11-25T10:56:46.412Z,31.40
2022-11-25T10:59:28.321Z,32.47
2022-11-25T11:02:25.717Z,42.05
2022-11-25T11:05:00.219Z,41.75
2022-11-25T11:07:36.152Z,44.38
2022-11-25T11:10:18.082Z,33.67
2022-11-25T11:12:58.029Z,41.65
2022-11-25T11:15:26.188Z,33.67
2022-11-25T11:17:55.109Z,35.47
2022-11-25T11:20:26.417Z,36.83
2022-11-25T11:23:08.816Z,30.80
2022-11-25T11:25:38.097Z,35.10
2022-11-25T11:28:33.004Z,30.52
2022-11-25T11:31:42.446Z,34.35
2022-11-25T11:34:52.242Z,29.77
2022-11-25T11:37:29.768Z,34.75
2022-11-25T11:40:02.921Z,33.78
2022-11-25T11:43:08.486Z,35.10
2022-11-25T11:46:04.286Z,30.38
2022-11-25T11:48:39.455Z,36.03
2022-11-25T11:51:18.514Z,35.35
2022-11-25T11:54:00.764Z,41.15
2022-11-25T11:56:50.636Z,32.65
2022-11-25T11:59:23.554Z,36.25
2022-11-25T12:02:12.862Z,36.80
2022-11-25T12:04:53.663Z,40.50
2022-11-25T12:07:49.621Z,43.38
2022-11-25T12:10:26.730Z,41.03
2022-11-25T12:13:08.926Z,43.83
2022-11-25T12:15:50.574Z,43.42
2022-11-25T12:18:30.114Z,43.55
2022-11-25T12:21:27.331Z,45.88
2022-11-25T12:23:58.890Z,43.95
2022-11-25T12:27:10.406Z,50.38
2022-11-25T12:29:45.535Z,46.05
2022-11-25T12:32:33.600Z,46.67
2022-11-25T12:35:20.028Z,45.90
2022-11-25T12:38:00.293Z,48.28
2022-11-25T12:40:49.157Z,44.70
2022-11-25T12:43:28.040Z,43.67
2022-11-25T12:46:21.290Z,47.75
2022-11-25T12:48:48.395Z,40.92
2022-11-25T12:51:24.569Z,47.72
2022-11-25T12:54:09.869Z,44.22
2022-11-25T12:56:57.046Z,44.92
2022-11-25T12:59:43.078Z,44.13
2022-11-25T13:02:37.631Z,44.55
2022-11-25T13:08:40.414Z,41.78
2022-11-25T13:11:25.877Z,44.03
2022-11-25T13:14:21.952Z,46.38
2022-11-25T13:16:50.970Z,47.72
2022-11-25T13:19:19.400Z,45.33
2022-11-25T13:22:18.284Z,48.75
2022-11-25T13:24:45.003Z,49.55
2022-11-25T13:27:31.562Z,52.58
2022-11-25T13:30:00.032Z,47.85
2022-11-25T13:32:38.964Z,53.97
2022-11-25T13:35:28.457Z,56.10
2022-11-25T13:37:55.287Z,53.30
2022-11-25T13:40:30.986Z,51.92
2022-11-25T13:43:00.400Z,42.33
2022-11-25T13:45:33.490Z,40.38
2022-11-25T13:48:21.414Z,41.17
2022-11-25T13:51:10.128Z,40.38
2022-11-25T13:53:37.932Z,36.90
2022-11-25T13:56:25.836Z,41.38
2022-11-25T13:59:14.220Z,35.35
2022-11-25T14:01:47.048Z,40.70
2022-11-25T14:04:16.345Z,36.97
2022-11-25T14:06:54.953Z,35.72
2022-11-25T14:09:48.179Z,39.28
2022-11-25T14:12:41.133Z,35.03
2022-11-25T14:15:37.256Z,37.00
2022-11-25T14:18:16.067Z,39.38
2022-11-25T14:21:01.251Z,42.60
2022-11-25T14:23:52.448Z,41.83
2022-11-25T14:26:49.412Z,40.35
2022-11-25T14:29:32.417Z,44.13
2022-11-25T14:32:13.329Z,44.83
2022-11-25T14:35:05.377Z,39.95
2022-11-25T14:37:52.951Z,41.30
2022-11-25T14:40:26.877Z,39.95
2022-11-25T14:43:02.318Z,38.00
2022-11-25T14:45:35.687Z,41.35
2022-11-25T14:48:18.776Z,41.95
2022-11-25T14:50:55.625Z,41.42
2022-11-25T14:53:22.943Z,44.90
2022-11-25T14:55:49.917Z,46.50
2022-11-25T14:58:16.697Z,45.13
2022-11-25T15:01:00.434Z,44.42
2022-11-25T15:03:27.251Z,51.00
2022-11-25T15:06:03.553Z,42.20
2022-11-25T15:08:42.765Z,49.47
2022-11-25T15:11:21.018Z,46.90
2022-11-25T15:16:22.428Z,41.95
2022-11-25T15:18:52.157Z,47.40
2022-11-25T15:21:22.370Z,47.85
2022-11-25T15:23:49.245Z,48.15
2022-11-25T15:26:20.780Z,49.47
2022-11-25T15:28:47.887Z,51.63
2022-11-25T15:31:21.064Z,48.20
2022-11-25T15:33:54.517Z,55.00
2022-11-25T15:36:23.837Z,47.42
2022-11-25T15:38:51.125Z,54.00
2022-11-25T15:41:32.013Z,48.03
2022-11-25T15:44:04.566Z,49.42
2022-11-25T15:46:35.521Z,46.17
2022-11-25T15:49:05.816Z,49.60
2022-11-25T15:51:43.884Z,45.33
2022-11-25T15:56:53.015Z,40.13
2022-11-25T15:59:58.769Z,34.58
2022-11-25T16:02:38.893Z,36.63
2022-11-25T16:05:14.714Z,29.75
2022-11-25T16:07:50.827Z,29.45
2022-11-25T16:10:31.741Z,33.40
2022-11-25T16:13:21.112Z,28.40
2022-11-25T16:16:19.129Z,37.47
2022-11-25T16:19:06.697Z,32.35
2022-11-25T16:21:36.604Z,28.95
2022-11-25T16:24:06.460Z,31.85
2022-11-25T16:26:58.111Z,32.15
2022-11-25T16:29:36.715Z,30.33
2022-11-25T16:32:18.515Z,32.00
2022-11-25T16:34:46.078Z,32.17
2022-11-25T16:37:13.181Z,34.20
2022-11-25T16:39:40.352Z,32.20
2022-11-25T16:42:12.707Z,32.97
2022-11-25T16:44:39.813Z,31.05
2022-11-25T16:47:11.241Z,32.78
2022-11-25T16:49:39.310Z,34.58
2022-11-25T16:52:06.239Z,30.10
2022-11-25T16:54:35.407Z,31.45
2022-11-25T16:57:05.069Z,32.00
2022-11-25T16:59:37.488Z,36.58
2022-11-25T17:02:10.357Z,38.35
2022-11-25T17:04:40.968Z,32.15
2022-11-25T17:07:32.103Z,35.67
2022-11-25T17:10:00.154Z,29.77
2022-11-25T17:12:31.340Z,30.05
2022-11-25T17:14:59.963Z,30.08
2022-11-25T17:17:28.239Z,28.92
2022-11-25T17:19:55.247Z,32.55
2022-11-25T17:22:24.733Z,29.33
2022-11-25T17:24:51.923Z,27.17
2022-11-25T17:27:26.783Z,29.98
2022-11-25T17:29:57.714Z,28.95
2022-11-25T17:32:25.886Z,27.52
2022-11-25T17:34:52.995Z,27.90
2022-11-25T17:37:25.824Z,25.85
2022-11-25T17:39:53.703Z,27.95
2022-11-25T17:42:26.932Z,30.45
2022-11-25T17:44:54.510Z,27.83
2022-11-25T17:47:21.414Z,31.17
2022-11-25T17:49:49.533Z,30.55
2022-11-25T17:52:16.409Z,27.52
2022-11-25T17:54:43.206Z,28.40
2022-11-25T17:57:17.097Z,28.38
2022-11-25T17:59:44.100Z,30.25
2022-11-25T18:02:22.225Z,29.77
2022-11-25T18:07:16.629Z,28.45
2022-11-25T18:09:44.401Z,28.20
2022-11-25T18:12:27.659Z,27.88
2022-11-25T18:14:55.521Z,30.10
2022-11-25T18:17:22.372Z,34.47
2022-11-25T18:19:55.208Z,30.80
2022-11-25T18:22:24.046Z,32.80
2022-11-25T18:24:51.858Z,31.17
2022-11-25T18:27:29.023Z,36.42
2022-11-25T18:29:57.240Z,34.05
2022-11-25T18:32:25.637Z,31.58
2022-11-25T18:34:52.519Z,32.50
2022-11-25T18:37:19.170Z,34.83
2022-11-25T18:39:46.542Z,29.92
2022-11-25T18:42:27.384Z,32.65
2022-11-25T18:44:55.892Z,30.05
2022-11-25T18:47:22.641Z,31.30
2022-11-25T18:49:55.092Z,37.30
2022-11-25T18:52:22.752Z,36.33
2022-11-25T18:54:49.638Z,35.78
2022-11-25T18:57:16.731Z,33.20
2022-11-25T18:59:44.578Z,41.83
2022-11-25T19:02:16.742Z,33.78
2022-11-25T19:04:44.375Z,33.15
2022-11-25T19:07:11.159Z,35.33
2022-11-25T19:09:37.992Z,29.05
2022-11-25T19:12:05.456Z,32.08
2022-11-25T19:14:36.671Z,32.72
2022-11-25T19:17:08.360Z,31.80
2022-11-25T19:19:37.707Z,30.85
2022-11-25T19:22:11.755Z,33.55
2022-11-25T19:24:38.781Z,31.92
2022-11-25T19:27:05.805Z,34.58
2022-11-25T19:29:40.445Z,32.47
2022-11-25T19:32:26.508Z,35.45
2022-11-25T19:34:57.761Z,29.92
2022-11-25T19:37:24.728Z,35.05
2022-11-25T19:39:52.589Z,32.80
2022-11-25T19:42:19.747Z,29.52
2022-11-25T19:44:46.864Z,32.20
2022-11-25T19:47:17.505Z,29.20
2022-11-25T19:49:44.817Z,28.95
2022-11-25T19:52:21.447Z,30.85
2022-11-25T19:54:48.721Z,30.45
2022-11-25T19:57:22.167Z,34.38
2022-11-25T19:59:49.957Z,33.55
2022-11-25T20:02:20.796Z,29.52
2022-11-25T20:04:50.730Z,28.27
2022-11-25T20:07:19.550Z,30.55
2022-11-25T20:09:47.538Z,27.17
2022-11-25T20:12:22.121Z,31.85
2022-11-25T20:14:50.130Z,28.73
2022-11-25T20:17:27.794Z,32.53
2022-11-25T20:19:58.081Z,27.77
2022-11-25T20:22:29.116Z,29.90
2022-11-25T20:24:57.017Z,33.08
2022-11-25T20:27:27.521Z,32.03
2022-11-25T20:29:54.660Z,31.27
2022-11-25T20:32:30.972Z,30.02
2022-11-25T20:34:58.913Z,31.38
2022-11-25T20:37:29.338Z,33.00
2022-11-25T20:39:59.079Z,31.13
2022-11-25T20:42:27.116Z,30.73
2022-11-25T20:44:57.754Z,26.92
2022-11-25T20:47:26.378Z,26.38
2022-11-25T20:49:53.936Z,22.98
2022-11-25T20:52:31.555Z,27.63
2022-11-25T20:54:58.899Z,28.88
2022-11-25T20:57:26.267Z,30.88
2022-11-25T20:59:53.023Z,28.17
2022-11-25T21:02:21.594Z,33.17
2022-11-25T21:04:48.489Z,26.35
2022-11-25T21:07:17.730Z,32.20
2022-11-25T21:09:45.023Z,30.50
2022-11-25T21:12:19.305Z,29.08
2022-11-25T21:14:47.301Z,29.70
2022-11-25T21:17:14.087Z,29.55
2022-11-25T21:19:40.865Z,29.73
2022-11-25T21:22:10.193Z,31.40
2022-11-25T21:24:40.399Z,31.30
2022-11-25T21:27:14.544Z,28.13
2022-11-25T21:29:44.542Z,31.52
2022-11-25T21:32:26.395Z,30.67
2022-11-25T21:34:54.488Z,27.67
2022-11-25T21:37:32.532Z,28.98
2022-11-25T21:40:00.321Z,28.92
2022-11-25T21:42:30.070Z,32.08
2022-11-25T21:44:57.077Z,29.27
2022-11-25T21:47:27.065Z,29.05
2022-11-25T21:49:54.072Z,31.92
2022-11-25T21:52:22.863Z,33.15
2022-11-25T21:54:49.650Z,31.95
2022-11-25T21:57:19.319Z,31.90
2022-11-25T21:59:46.914Z,30.95
2022-11-25T22:02:17.845Z,28.02
2022-11-25T22:04:44.899Z,29.95
2022-11-25T22:07:11.682Z,32.13
2022-11-25T22:09:39.051Z,34.42
2022-11-25T22:12:06.663Z,34.60
2022-11-25T22:14:37.840Z,27.73
2022-11-25T22:17:07.326Z,30.40
2022-11-25T22:19:34.174Z,35.60
2022-11-25T22:22:00.993Z,34.38
2022-11-25T22:24:29.343Z,28.95
2022-11-25T22:26:58.123Z,32.63
2022-11-25T22:29:33.000Z,35.25
2022-11-25T22:31:59.791Z,30.23
2022-11-25T22:34:26.672Z,36.03
2022-11-25T22:36:53.393Z,32.53
2022-11-25T22:39:25.478Z,31.02
2022-11-25T22:42:05.190Z,31.60
2022-11-25T22:44:38.585Z,32.40
2022-11-25T22:47:06.953Z,29.17
2022-11-25T22:49:38.957Z,31.50
2022-11-25T22:52:10.615Z,36.08
2022-11-25T22:54:37.505Z,34.10
2022-11-25T22:57:04.481Z,41.25
2022-11-25T22:59:31.073Z,36.63
2022-11-25T23:01:57.796Z,37.55
2022-11-25T23:04:24.490Z,41.55
2022-11-25T23:06:51.723Z,36.25
2022-11-25T23:09:19.485Z,43.17
2022-11-25T23:11:46.519Z,47.22
2022-11-25T23:14:13.412Z,40.78
2022-11-25T23:16:41.977Z,36.80
2022-11-25T23:19:18.969Z,41.05
2022-11-25T23:21:46.249Z,40.78
2022-11-25T23:24:15.499Z,41.47
2022-11-25T23:26:42.918Z,40.45
2022-11-25T23:29:09.666Z,43.90
2022-11-25T23:31:38.162Z,36.97
2022-11-25T23:34:06.968Z,39.63
2022-11-25T23:36:48.589Z,42.33
2022-11-25T23:39:20.169Z,39.75
2022-11-25T23:41:47.814Z,46.35
2022-11-25T23:44:30.830Z,42.85
2022-11-25T23:47:04.088Z,42.33
2022-11-25T23:49:40.139Z,42.58
2022-11-25T23:52:11.706Z,39.22
2022-11-25T23:54:42.544Z,34.22
2022-11-25T23:57:21.844Z,39.78
2022-11-25T23:59:49.347Z,41.90
